Time;durP1;ratioP1;P1;durP2;ratioP2;P2;SDS_P1;SDS_P2;PMS_P1;PMS_P2;Temp;Humidity;BMP_temperature;BMP_pressure;BME280_temperature;BME280_humidity;BME280_pressure;Samples;Min_cycle;Max_cycle;Signal;HPM_P1;HPM_P2
2022/01/10 00:01:16;;;;;;;9.40;5.30;;;;;;;-1.76;82.80;98095.75;104697;1277;74268;-26
2022/01/10 00:03:45;;;;;;;7.50;4.50;;;;;;;-1.76;82.64;98095.92;104679;1277;61956;-25
2022/01/10 00:06:14;;;;;;;7.20;3.30;;;;;;;-1.37;80.54;98098.52;104725;1277;61051;-25
2022/01/10 00:08:43;;;;;;;6.70;3.60;;;;;;;-1.45;80.13;98100.47;104829;1277;74967;-24
2022/01/10 00:11:11;;;;;;;6.20;3.50;;;;;;;-1.71;80.88;98104.54;104839;1276;75037;-24
2022/01/10 00:13:39;;;;;;;5.60;3.20;;;;;;;-1.87;81.43;98108.33;104601;1277;73509;-24
2022/01/10 00:16:27;;;;;;;5.20;3.20;;;;;;;-1.91;81.66;98107.67;104831;1277;61386;-24
2022/01/10 00:18:56;;;;;;;5.30;3.30;;;;;;;-2.11;82.36;98109.23;104799;1277;61002;-23
2022/01/10 00:21:25;;;;;;;4.30;3.00;;;;;;;-1.84;81.60;98113.29;104648;1276;74794;-23
2022/01/10 00:23:54;;;;;;;5.80;2.80;;;;;;;-1.52;79.71;98112.37;104816;1275;76230;-23
2022/01/10 00:26:22;;;;;;;4.20;2.70;;;;;;;-1.63;79.79;98115.73;104606;1277;74232;-23
2022/01/10 00:28:51;;;;;;;4.40;2.50;;;;;;;-1.67;79.93;98114.92;104451;1277;61032;-23
2022/01/10 00:31:19;;;;;;;4.20;2.70;;;;;;;-1.76;80.27;98114.48;104688;1278;61109;-23
2022/01/10 00:33:48;;;;;;;7.60;4.10;;;;;;;-2.12;81.56;98117.44;104825;1277;74783;-23
2022/01/10 00:36:17;;;;;;;5.20;2.80;;;;;;;-2.01;81.56;98116.46;104867;1277;75907;-25
2022/01/10 00:38:45;;;;;;;3.90;2.70;;;;;;;-1.50;79.27;98112.96;104459;1278;74044;-23
2022/01/10 00:41:13;;;;;;;4.40;2.60;;;;;;;-1.36;78.42;98118.60;104718;1277;61185;-24
2022/01/10 00:43:46;;;;;;;4.00;1.90;;;;;;;-1.45;78.28;98119.19;104728;1277;62161;-23
2022/01/10 00:46:19;;;;;;;4.30;3.00;;;;;;;-1.58;78.68;98114.02;104725;1277;73396;-23
2022/01/10 00:48:48;;;;;;;5.20;3.20;;;;;;;-1.89;79.55;98112.52;104722;1276;75172;-23
2022/01/10 00:51:16;;;;;;;4.10;2.60;;;;;;;-2.20;80.97;98112.54;104627;1277;73954;-24
2022/01/10 00:53:48;;;;;;;4.60;2.30;;;;;;;-2.32;81.17;98118.31;104708;1277;61591;-24
2022/01/10 00:56:17;;;;;;;3.80;2.30;;;;;;;-1.91;80.07;98115.33;104702;1277;62308;-24
2022/01/10 00:58:46;;;;;;;3.40;2.00;;;;;;;-1.52;78.11;98120.53;104730;1276;75256;-23
2022/01/10 01:01:14;;;;;;;3.60;2.40;;;;;;;-1.35;77.47;98125.49;104297;1277;76020;-24
2022/01/10 01:03:44;;;;;;;4.50;2.90;;;;;;;-1.44;77.30;98128.16;104849;1277;71622;-25
2022/01/10 01:06:14;;;;;;;3.80;2.70;;;;;;;-1.87;78.88;98128.42;104748;1276;61181;-26
2022/01/10 01:08:44;;;;;;;5.10;2.70;;;;;;;-2.10;79.79;98129.80;104696;1276;61036;-25
2022/01/10 01:14:23;;;;;;;4.10;2.50;;;;;;;-2.13;80.93;98142.52;104657;1275;74027;-23
2022/01/10 01:17:11;;;;;;;4.70;2.20;;;;;;;-1.75;79.35;98148.12;104687;1277;72440;-22
2022/01/10 01:25:14;;;;;;;4.10;1.90;;;;;;;-2.29;80.73;98160.52;104744;1274;74083;-23
2022/01/10 01:27:43;;;;;;;4.10;2.60;;;;;;;-2.31;81.02;98168.25;104911;1274;75805;-23
2022/01/10 01:30:12;;;;;;;5.00;2.10;;;;;;;-2.61;82.31;98166.80;105109;1274;73441;-24
2022/01/10 01:32:42;;;;;;;5.80;3.90;;;;;;;-2.24;81.31;98170.19;104980;1273;61153;-25
2022/01/10 01:35:10;;;;;;;5.30;3.70;;;;;;;-2.21;80.49;98175.31;104878;1274;61778;-23
2022/01/10 01:37:39;;;;;;;3.30;2.50;;;;;;;-2.33;80.93;98171.42;105074;1274;73904;-23
2022/01/10 01:40:10;;;;;;;7.10;3.60;;;;;;;-2.48;81.31;98170.00;105143;1274;74447;-23
2022/01/10 01:42:41;;;;;;;6.20;2.70;;;;;;;-2.66;82.03;98174.48;105146;1274;73736;-23
2022/01/10 01:45:11;;;;;;;5.40;3.30;;;;;;;-2.99;83.01;98165.63;104785;1274;61141;-23
2022/01/10 01:47:40;;;;;;;3.60;2.30;;;;;;;-2.91;82.47;98172.59;104900;1274;61822;-23
2022/01/10 01:50:18;;;;;;;3.40;2.50;;;;;;;-2.80;82.03;98173.04;105119;1274;74590;-23
2022/01/10 01:52:47;;;;;;;4.80;3.30;;;;;;;-2.85;82.38;98182.55;105084;1274;76299;-23
2022/01/10 01:55:15;;;;;;;5.00;2.90;;;;;;;-3.01;83.18;98183.20;105123;1274;73700;-23
2022/01/10 01:57:44;;;;;;;6.90;3.90;;;;;;;-3.17;83.87;98185.50;105124;1274;61127;-23
2022/01/10 02:00:12;;;;;;;6.50;4.00;;;;;;;-3.30;84.45;98187.04;104860;1274;61847;-23
2022/01/10 02:02:47;;;;;;;7.20;3.70;;;;;;;-3.11;84.05;98192.60;104785;1274;74804;-22
2022/01/10 02:05:16;;;;;;;4.30;2.70;;;;;;;-2.75;82.06;98198.33;105109;1274;75882;-23
2022/01/10 02:07:45;;;;;;;4.90;3.10;;;;;;;-2.88;81.65;98201.20;105083;1274;74251;-23
2022/01/10 02:10:14;;;;;;;5.30;3.20;;;;;;;-3.21;82.44;98201.64;105167;1274;61156;-23
2022/01/10 02:12:43;;;;;;;5.50;3.80;;;;;;;-3.44;83.60;98205.90;104772;1275;61214;-23
2022/01/10 02:15:26;;;;;;;7.40;4.40;;;;;;;-3.63;84.43;98205.92;105104;1274;75402;-22
2022/01/10 02:17:59;;;;;;;2.30;2.00;;;;;;;-3.26;83.20;98209.14;104736;1274;76074;-23
2022/01/10 02:20:32;;;;;;;4.20;2.60;;;;;;;-2.85;81.15;98214.83;104799;1274;74518;-23
2022/01/10 02:23:01;;;;;;;5.10;2.30;;;;;;;-2.88;80.74;98210.73;104537;1277;61325;-23
2022/01/10 02:25:43;;;;;;;3.90;2.50;;;;;;;-3.06;81.23;98213.45;104714;1274;61993;-23
2022/01/10 02:28:12;;;;;;;5.10;2.70;;;;;;;-3.13;81.61;98214.75;104929;1274;74651;-23
2022/01/10 02:30:40;;;;;;;5.10;2.60;;;;;;;-3.49;82.86;98216.77;105113;1274;74994;-23
2022/01/10 02:33:09;;;;;;;4.30;2.60;;;;;;;-3.50;83.55;98219.34;104923;1273;74539;-23
2022/01/10 02:35:55;;;;;;;4.50;2.90;;;;;;;-2.84;81.20;98221.94;104591;1275;61121;-23
2022/01/10 02:38:24;;;;;;;4.50;2.90;;;;;;;-2.78;80.50;98221.36;104950;1274;61783;-23
2022/01/10 02:40:53;;;;;;;2.70;2.00;;;;;;;-2.84;80.53;98221.92;104928;1274;75325;-22
2022/01/10 02:43:21;;;;;;;3.10;2.40;;;;;;;-3.30;82.31;98223.73;105105;1274;75009;-25
2022/01/10 02:45:50;;;;;;;6.80;3.70;;;;;;;-3.41;82.89;98230.73;104906;1274;73186;-23
2022/01/10 02:48:18;;;;;;;3.50;2.30;;;;;;;-3.54;83.80;98232.05;105104;1274;61129;-23
2022/01/10 02:50:47;;;;;;;5.30;3.30;;;;;;;-3.28;82.81;98235.67;104746;1274;61102;-23
2022/01/10 02:53:15;;;;;;;5.40;3.50;;;;;;;-2.95;81.66;98231.72;105130;1274;75799;-23
2022/01/10 02:55:44;;;;;;;5.50;3.00;;;;;;;-2.84;80.75;98233.82;104905;1274;76303;-23
2022/01/10 02:58:12;;;;;;;4.90;3.60;;;;;;;-3.06;81.49;98243.66;105125;1274;74066;-23
2022/01/10 03:00:41;;;;;;;5.80;3.60;;;;;;;-3.35;82.75;98246.13;104906;1274;61136;-23
2022/01/10 03:03:09;;;;;;;4.80;3.30;;;;;;;-3.42;83.20;98251.48;104861;1274;61116;-23
2022/01/10 03:05:38;;;;;;;4.60;3.40;;;;;;;-3.52;84.01;98248.98;104949;1274;73641;-23
2022/01/10 03:08:06;;;;;;;8.20;4.30;;;;;;;-3.06;82.16;98250.96;105094;1273;74263;-24
2022/01/10 03:10:35;;;;;;;5.70;2.80;;;;;;;-2.84;80.86;98257.79;104745;1275;74360;-23
2022/01/10 03:13:03;;;;;;;6.10;3.60;;;;;;;-2.63;80.30;98265.10;104910;1274;61292;-23
2022/01/10 03:15:31;;;;;;;5.10;2.60;;;;;;;-2.74;80.04;98264.37;104882;1274;61125;-23
2022/01/10 03:18:00;;;;;;;1.90;1.70;;;;;;;-3.10;81.29;98273.05;105085;1274;74607;-22
2022/01/10 03:20:28;;;;;;;6.70;4.70;;;;;;;-3.20;81.62;98281.91;104885;1274;76188;-23
2022/01/10 03:22:57;;;;;;;3.90;2.70;;;;;;;-3.45;82.94;98284.87;104972;1274;74350;-23
2022/01/10 03:25:25;;;;;;;4.30;2.70;;;;;;;-3.08;81.71;98282.48;104780;1274;61089;-23
2022/01/10 03:27:56;;;;;;;3.80;2.50;;;;;;;-2.89;80.78;98290.58;104916;1274;61583;-23
2022/01/10 03:30:26;;;;;;;5.50;3.20;;;;;;;-2.87;80.54;98295.09;104859;1274;75647;-23
2022/01/10 03:32:57;;;;;;;4.80;2.20;;;;;;;-3.16;81.49;98291.95;104911;1274;75992;-25
2022/01/10 03:35:30;;;;;;;4.00;3.00;;;;;;;-3.25;81.70;98292.62;105127;1274;73432;-26
2022/01/10 03:38:00;;;;;;;4.40;3.00;;;;;;;-3.56;82.99;98296.61;105032;1274;61070;-23
2022/01/10 03:40:31;;;;;;;5.50;3.80;;;;;;;-3.37;82.75;98295.08;104896;1274;61117;-23
2022/01/10 03:43:02;;;;;;;7.60;4.70;;;;;;;-3.15;81.20;98297.00;104955;1274;74531;-23
2022/01/10 03:45:32;;;;;;;6.40;2.80;;;;;;;-3.24;81.36;98294.95;104650;1274;76015;-23
2022/01/10 03:48:01;;;;;;;5.10;3.00;;;;;;;-3.50;82.20;98295.21;104836;1274;74467;-23
2022/01/10 03:50:29;;;;;;;4.40;3.00;;;;;;;-3.51;82.57;98299.52;105059;1274;61035;-23
2022/01/10 03:52:58;;;;;;;7.20;3.90;;;;;;;-3.69;83.08;98299.44;104671;1277;61146;-23
2022/01/10 03:55:26;;;;;;;4.10;2.80;;;;;;;-3.46;82.16;98307.79;104817;1274;75572;-23
2022/01/10 03:57:55;;;;;;;4.00;2.70;;;;;;;-3.02;80.46;98307.73;105093;1274;74828;-23
2022/01/10 04:00:23;;;;;;;3.80;2.30;;;;;;;-3.19;80.55;98311.44;105073;1274;73238;-23
2022/01/10 04:02:58;;;;;;;4.50;2.60;;;;;;;-3.24;80.90;98312.28;105083;1274;61104;-23
2022/01/10 04:05:30;;;;;;;5.20;3.10;;;;;;;-3.36;80.90;98315.42;104778;1275;61046;-23
2022/01/10 04:07:59;;;;;;;6.90;4.10;;;;;;;-3.59;82.00;98318.42;104774;1275;74730;-23
2022/01/10 04:10:28;;;;;;;6.50;3.90;;;;;;;-3.83;82.87;98324.20;104696;1274;75898;-23
2022/01/10 04:12:56;;;;;;;7.80;3.80;;;;;;;-3.43;81.61;98327.04;104866;1274;73496;-23
2022/01/10 04:15:25;;;;;;;4.40;3.00;;;;;;;-2.98;79.78;98329.14;105065;1274;61211;-22
2022/01/10 04:17:56;;;;;;;7.00;3.80;;;;;;;-3.11;79.63;98336.07;104928;1274;61166;-23
2022/01/10 04:20:25;;;;;;;7.70;4.20;;;;;;;-3.17;79.88;98340.88;104695;1274;74434;-25
2022/01/10 04:22:54;;;;;;;10.70;5.60;;;;;;;-3.44;80.68;98345.24;105124;1273;75965;-23
2022/01/10 04:25:22;;;;;;;5.00;2.70;;;;;;;-3.59;81.19;98349.67;105112;1274;73944;-25
2022/01/10 04:27:51;;;;;;;5.70;2.80;;;;;;;-3.65;81.66;98350.23;105081;1274;62942;-23
2022/01/10 04:30:29;;;;;;;7.60;4.10;;;;;;;-3.06;79.85;98355.44;105052;1274;61121;-23
2022/01/10 04:32:59;;;;;;;9.70;5.20;;;;;;;-2.96;78.64;98355.93;104843;1274;74075;-23
2022/01/10 04:35:28;;;;;;;9.30;5.30;;;;;;;-3.14;79.54;98362.18;105089;1274;76001;-23
2022/01/10 04:37:57;;;;;;;8.60;4.60;;;;;;;-3.35;79.86;98365.98;104786;1274;73264;-23
2022/01/10 04:40:25;;;;;;;9.70;4.90;;;;;;;-3.48;80.83;98365.41;105164;1274;61104;-23
2022/01/10 04:42:55;;;;;;;6.30;3.70;;;;;;;-3.67;81.57;98366.09;105093;1274;61042;-23
2022/01/10 04:45:23;;;;;;;6.00;3.80;;;;;;;-3.86;81.98;98363.80;104784;1274;74835;-23
2022/01/10 04:47:52;;;;;;;5.50;3.60;;;;;;;-3.38;80.50;98365.59;105092;1274;75819;-23
2022/01/10 04:52:50;;;;;;;6.80;4.80;;;;;;;-3.19;79.10;98369.14;104886;1274;61166;-23
2022/01/10 04:55:19;;;;;;;6.30;3.50;;;;;;;-3.45;80.03;98373.80;104738;1275;61025;-23
2022/01/10 04:57:47;;;;;;;5.10;3.20;;;;;;;-3.54;80.17;98375.95;104764;1277;75544;-23
2022/01/10 05:00:16;;;;;;;5.40;3.60;;;;;;;-3.71;80.75;98381.30;105088;1274;74971;-23
2022/01/10 05:02:47;;;;;;;5.50;2.80;;;;;;;-3.88;81.26;98379.66;104734;1274;74603;-23
2022/01/10 05:05:15;;;;;;;12.60;5.80;;;;;;;-3.76;80.90;98383.00;104768;1274;63001;-23
2022/01/10 05:07:44;;;;;;;3.90;2.50;;;;;;;-3.18;78.52;98387.27;105097;1274;61167;-23
2022/01/10 05:10:13;;;;;;;5.80;3.80;;;;;;;-3.10;77.52;98387.66;105110;1274;75561;-23
2022/01/10 05:12:42;;;;;;;4.50;2.60;;;;;;;-3.45;78.19;98394.83;105054;1274;76259;-23
2022/01/10 05:15:11;;;;;;;6.70;3.60;;;;;;;-3.37;78.32;98396.09;105128;1274;74438;-25
2022/01/10 05:17:39;;;;;;;9.50;3.90;;;;;;;-3.47;78.59;98397.47;105083;1274;61042;-22
2022/01/10 05:20:09;;;;;;;8.60;4.80;;;;;;;-3.75;79.54;98399.05;104795;1274;62206;-22
2022/01/10 05:22:37;;;;;;;13.80;7.20;;;;;;;-3.93;80.31;98401.70;104714;1277;75744;-23
2022/01/10 05:25:06;;;;;;;10.20;6.30;;;;;;;-3.42;78.39;98407.27;104733;1275;76051;-22
2022/01/10 05:27:36;;;;;;;8.10;3.80;;;;;;;-2.92;76.42;98412.48;104741;1277;73234;-22
2022/01/10 05:30:07;;;;;;;6.00;3.30;;;;;;;-3.01;76.01;98416.71;104894;1274;61140;-22
2022/01/10 05:32:35;;;;;;;18.10;7.40;;;;;;;-3.40;77.09;98423.33;104768;1275;61042;-23
2022/01/10 05:35:11;;;;;;;14.90;7.90;;;;;;;-3.47;77.71;98426.81;105079;1274;76041;-23
2022/01/10 05:37:39;;;;;;;8.10;4.30;;;;;;;-3.64;78.04;98429.94;105073;1273;76164;-23
2022/01/10 05:40:08;;;;;;;19.30;8.20;;;;;;;-3.76;78.69;98430.83;105061;1274;74439;-23
2022/01/10 05:42:36;;;;;;;8.80;4.10;;;;;;;-3.78;79.24;98430.73;104920;1274;61681;-23
2022/01/10 05:45:05;;;;;;;11.80;4.90;;;;;;;-3.21;76.77;98441.38;104879;1274;61065;-23
2022/01/10 05:47:39;;;;;;;15.80;6.50;;;;;;;-3.19;76.46;98445.23;104901;1274;75861;-23
2022/01/10 05:50:09;;;;;;;6.70;4.10;;;;;;;-3.36;76.86;98445.10;104832;1274;75992;-23
2022/01/10 05:52:40;;;;;;;5.10;3.20;;;;;;;-3.63;76.69;98444.33;104768;1275;74195;-23
2022/01/10 05:55:09;;;;;;;9.30;4.30;;;;;;;-3.72;77.55;98452.26;104883;1274;61220;-23
2022/01/10 05:57:39;;;;;;;8.00;4.00;;;;;;;-3.77;77.84;98452.91;104884;1275;61140;-23
2022/01/10 06:00:08;;;;;;;5.80;3.60;;;;;;;-3.93;78.43;98458.18;104877;1274;74052;-23
2022/01/10 06:02:45;;;;;;;7.10;3.70;;;;;;;-3.37;77.78;98459.06;104762;1274;75060;-23
2022/01/10 06:05:29;;;;;;;10.70;4.40;;;;;;;-2.79;75.09;98466.07;104788;1274;73173;-23
2022/01/10 06:07:59;;;;;;;6.00;2.80;;;;;;;-2.76;74.74;98475.31;104896;1274;61130;-23
2022/01/10 06:10:29;;;;;;;7.60;4.30;;;;;;;-2.91;75.03;98479.57;104644;1274;61119;-23
2022/01/10 06:13:02;;;;;;;8.10;4.90;;;;;;;-3.21;75.84;98483.80;104636;1275;75525;-23
2022/01/10 06:15:31;;;;;;;7.50;4.30;;;;;;;-3.41;76.79;98484.66;104713;1274;75736;-23
2022/01/10 06:18:00;;;;;;;7.10;4.30;;;;;;;-3.54;77.23;98486.96;105139;1274;73625;-23
2022/01/10 06:20:28;;;;;;;5.90;3.50;;;;;;;-3.81;78.37;98486.13;104780;1277;61139;-23
2022/01/10 06:22:57;;;;;;;3.20;1.70;;;;;;;-4.08;79.48;98487.48;104778;1275;61827;-22
2022/01/10 06:25:26;;;;;;;7.30;3.20;;;;;;;-3.89;79.47;98492.98;105129;1274;75551;-22
2022/01/10 06:27:57;;;;;;;10.70;4.70;;;;;;;-3.22;77.00;98499.32;104899;1274;77045;-23
2022/01/10 06:30:26;;;;;;;6.30;2.70;;;;;;;-3.05;75.63;98507.05;105121;1271;71734;-22
2022/01/10 06:32:54;;;;;;;8.70;4.30;;;;;;;-3.28;75.91;98509.17;105115;1274;61128;-25
2022/01/10 06:35:23;;;;;;;9.00;3.70;;;;;;;-3.34;76.34;98516.02;105053;1271;61792;-23
2022/01/10 06:37:51;;;;;;;6.60;3.50;;;;;;;-3.70;76.96;98519.20;104899;1271;74513;-26
2022/01/10 06:40:20;;;;;;;8.00;3.50;;;;;;;-3.81;77.29;98519.73;104927;1271;74566;-24
2022/01/10 06:42:48;;;;;;;9.50;4.70;;;;;;;-3.83;78.01;98520.29;104776;1272;71541;-24
2022/01/10 06:45:19;;;;;;;9.00;3.60;;;;;;;-3.92;78.04;98526.16;104810;1271;61150;-23
2022/01/10 06:47:49;;;;;;;4.10;2.40;;;;;;;-3.62;77.41;98532.17;105136;1274;61947;-26
2022/01/10 06:50:17;;;;;;;6.30;3.30;;;;;;;-3.03;74.96;98540.11;105128;1271;73795;-25
2022/01/10 06:52:47;;;;;;;3.20;2.30;;;;;;;-2.90;74.55;98547.64;105189;1271;74365;-26
2022/01/10 06:55:16;;;;;;;5.70;3.10;;;;;;;-2.98;74.53;98544.71;105148;1271;74386;-25
2022/01/10 06:57:44;;;;;;;5.50;2.70;;;;;;;-3.16;74.99;98542.91;105102;1274;61029;-24
2022/01/10 07:00:13;;;;;;;5.10;3.10;;;;;;;-3.35;75.87;98549.13;105114;1271;61774;-24
2022/01/10 07:02:47;;;;;;;7.00;3.60;;;;;;;-3.61;76.60;98546.21;105071;1271;73966;-24
2022/01/10 07:05:16;;;;;;;7.50;4.60;;;;;;;-3.84;77.63;98551.53;105145;1274;75754;-24
2022/01/10 07:07:45;;;;;;;5.70;2.60;;;;;;;-4.01;78.68;98552.70;105136;1271;74430;-25
2022/01/10 07:10:37;;;;;;;4.80;2.80;;;;;;;-3.19;77.13;98561.37;105146;1271;61240;-22
2022/01/10 07:13:05;;;;;;;7.10;3.50;;;;;;;-2.58;74.22;98565.75;104727;1274;60982;-22
2022/01/10 07:15:34;;;;;;;7.50;4.40;;;;;;;-2.63;73.98;98565.08;104780;1271;75495;-24
2022/01/10 07:18:04;;;;;;;6.00;3.20;;;;;;;-3.03;75.39;98563.20;104845;1271;74248;-24
2022/01/10 07:20:36;;;;;;;6.00;3.60;;;;;;;-3.27;76.52;98566.88;104766;1271;74602;-22
2022/01/10 07:23:04;;;;;;;7.20;3.60;;;;;;;-3.45;77.42;98565.07;104798;1274;61272;-24
2022/01/10 07:25:32;;;;;;;9.60;4.70;;;;;;;-3.66;77.99;98566.59;104873;1271;61055;-24
2022/01/10 07:28:01;;;;;;;7.00;4.60;;;;;;;-3.78;78.66;98566.11;105073;1271;75795;-24
2022/01/10 07:30:29;;;;;;;9.20;5.00;;;;;;;-3.90;79.34;98564.60;105081;1274;74469;-24
2022/01/10 07:32:57;;;;;;;6.90;3.60;;;;;;;-3.41;78.54;98575.63;105037;1271;74703;-24
2022/01/10 07:35:26;;;;;;;9.70;5.20;;;;;;;-2.72;75.74;98575.60;105112;1271;61845;-24
2022/01/10 07:37:55;;;;;;;8.60;4.80;;;;;;;-2.82;75.21;98577.27;105155;1271;61171;-22
2022/01/10 07:40:24;;;;;;;11.20;6.00;;;;;;;-3.22;76.76;98579.98;105108;1271;75569;-22
2022/01/10 07:42:52;;;;;;;7.90;4.60;;;;;;;-3.37;77.22;98582.31;105125;1274;75935;-22
2022/01/10 07:45:31;;;;;;;7.30;4.70;;;;;;;-3.67;78.38;98584.94;105024;1274;73482;-25
2022/01/10 07:47:59;;;;;;;9.20;4.70;;;;;;;-3.81;78.68;98587.22;104724;1274;61175;-24
2022/01/10 07:50:28;;;;;;;10.70;6.80;;;;;;;-4.05;79.76;98590.13;104853;1274;61223;-23
2022/01/10 07:52:57;;;;;;;7.70;5.00;;;;;;;-3.74;79.48;98588.88;105152;1274;75439;-24
2022/01/10 07:55:25;;;;;;;9.50;5.20;;;;;;;-3.41;77.69;98599.74;105085;1271;74178;-24
2022/01/10 07:57:54;;;;;;;6.40;3.80;;;;;;;-3.41;77.49;98601.62;105146;1271;74448;-24
2022/01/10 08:00:22;;;;;;;15.10;5.10;;;;;;;-3.38;77.68;98603.22;104742;1274;61014;-24
2022/01/10 08:02:50;;;;;;;8.90;4.50;;;;;;;-3.37;77.59;98608.98;104826;1271;61200;-24
2022/01/10 08:05:19;;;;;;;10.80;6.00;;;;;;;-3.69;78.85;98605.70;104802;1271;73667;-24
2022/01/10 08:07:47;;;;;;;10.10;5.40;;;;;;;-4.03;80.56;98600.43;104782;1271;74985;-24
2022/01/10 08:10:15;;;;;;;9.00;4.60;;;;;;;-4.10;81.16;98606.73;104775;1271;74650;-24
2022/01/10 08:12:43;;;;;;;14.00;6.30;;;;;;;-3.62;79.77;98616.00;104920;1273;61148;-24
2022/01/10 08:15:12;;;;;;;7.30;4.50;;;;;;;-3.27;78.80;98621.53;104850;1274;61064;-24
2022/01/10 08:17:41;;;;;;;7.30;3.80;;;;;;;-3.19;78.00;98624.70;104827;1274;75721;-24
2022/01/10 08:20:12;;;;;;;16.60;8.50;;;;;;;-3.32;78.26;98633.27;104803;1274;75900;-24
2022/01/10 08:22:40;;;;;;;15.30;6.90;;;;;;;-3.49;78.59;98638.17;104979;1271;74593;-24
2022/01/10 08:25:09;;;;;;;10.20;6.50;;;;;;;-3.77;79.13;98639.36;104881;1271;61184;-24
2022/01/10 08:27:38;;;;;;;9.00;5.90;;;;;;;-3.82;79.31;98645.43;105157;1272;62047;-24
2022/01/10 08:30:07;;;;;;;11.70;6.10;;;;;;;-3.47;78.62;98652.55;105155;1271;75643;-24
2022/01/10 08:32:35;;;;;;;7.80;4.60;;;;;;;-3.21;76.62;98652.27;105125;1274;76085;-24
2022/01/10 08:35:04;;;;;;;12.00;5.70;;;;;;;-3.07;75.47;98659.98;105142;1271;74158;-24
2022/01/10 08:37:33;;;;;;;25.90;12.80;;;;;;;-3.48;75.45;98664.45;104940;1274;61223;-24
2022/01/10 08:40:01;;;;;;;18.00;8.40;;;;;;;-3.58;75.67;98667.81;105127;1271;61144;-24
2022/01/10 08:42:31;;;;;;;9.70;4.30;;;;;;;-3.71;76.21;98669.03;105157;1274;73581;-24
2022/01/10 08:44:59;;;;;;;13.10;6.80;;;;;;;-3.80;75.78;98669.98;105153;1271;76030;-24
2022/01/10 08:47:28;;;;;;;13.50;4.40;;;;;;;-3.91;76.86;98672.33;104973;1272;74593;-24
2022/01/10 08:49:58;;;;;;;11.70;4.80;;;;;;;-3.68;76.28;98675.73;104769;1273;61165;-24
2022/01/10 08:52:26;;;;;;;36.00;13.60;;;;;;;-3.15;74.62;98685.52;104942;1271;61151;-24
2022/01/10 08:54:54;;;;;;;28.10;10.50;;;;;;;-3.09;73.82;98688.58;104845;1274;74600;-24
2022/01/10 08:57:24;;;;;;;38.30;14.10;;;;;;;-3.18;74.54;98689.20;105119;1274;75847;-23
2022/01/10 08:59:52;;;;;;;25.50;11.30;;;;;;;-3.28;74.89;98690.33;105117;1271;73176;-23
2022/01/10 09:02:21;;;;;;;21.50;10.40;;;;;;;-3.36;75.53;98691.44;105083;1271;61242;-23
2022/01/10 09:04:50;;;;;;;13.00;7.30;;;;;;;-3.54;76.49;98692.14;105130;1274;60971;-23
2022/01/10 09:07:18;;;;;;;6.80;4.80;;;;;;;-3.71;77.27;98695.52;105078;1272;74508;-23
2022/01/10 09:09:46;;;;;;;8.20;4.80;;;;;;;-3.33;76.42;98702.54;105131;1274;76032;-23
2022/01/10 09:12:16;;;;;;;7.50;4.80;;;;;;;-2.95;75.01;98700.85;105141;1271;74264;-23
2022/01/10 09:14:45;;;;;;;13.30;7.70;;;;;;;-3.10;75.41;98698.45;105121;1271;61587;-23
2022/01/10 09:17:14;;;;;;;11.60;6.80;;;;;;;-3.21;76.52;98703.04;105165;1272;61029;-23
2022/01/10 09:19:45;;;;;;;9.90;6.20;;;;;;;-3.35;76.75;98704.63;105085;1271;74498;-23
2022/01/10 09:22:15;;;;;;;11.60;7.90;;;;;;;-3.43;77.21;98703.84;105160;1271;75830;-23
2022/01/10 09:24:46;;;;;;;21.30;9.70;;;;;;;-3.59;78.22;98701.47;104967;1271;74363;-22
2022/01/10 09:27:14;;;;;;;46.00;13.80;;;;;;;-3.48;78.55;98707.06;104741;1274;61925;-23
2022/01/10 09:29:45;;;;;;;46.00;15.90;;;;;;;-2.78;76.15;98711.56;104874;1274;61206;-23
2022/01/10 09:32:14;;;;;;;48.30;18.40;;;;;;;-2.68;74.68;98708.50;105083;1272;75594;-23
2022/01/10 09:34:42;;;;;;;384.10;150.10;;;;;;;-2.67;74.48;98709.50;105102;1274;75039;-23
2022/01/10 09:37:11;;;;;;;104.40;42.30;;;;;;;-2.99;75.29;98716.65;105126;1271;73462;-22
2022/01/10 09:39:39;;;;;;;83.20;36.30;;;;;;;-3.33;75.91;98716.48;105109;1271;61129;-23
2022/01/10 09:42:09;;;;;;;159.90;57.70;;;;;;;-3.42;75.81;98721.30;105138;1271;61039;-24
2022/01/10 09:44:39;;;;;;;331.40;95.70;;;;;;;-3.63;76.45;98719.23;105140;1271;76805;-22
2022/01/10 09:47:07;;;;;;;235.40;65.20;;;;;;;-3.72;76.98;98720.28;105119;1271;75213;-22
2022/01/10 09:49:36;;;;;;;119.60;34.50;;;;;;;-3.68;77.48;98718.50;104914;1274;75000;-23
2022/01/10 09:52:05;;;;;;;23.50;10.10;;;;;;;-3.33;76.18;98714.77;105175;1271;61079;-23
2022/01/10 09:54:33;;;;;;;20.80;9.60;;;;;;;-3.16;75.84;98720.53;105105;1271;62160;-23
2022/01/10 09:57:02;;;;;;;142.50;50.00;;;;;;;-3.24;75.57;98716.39;105137;1274;74672;-23
2022/01/10 09:59:30;;;;;;;77.20;34.80;;;;;;;-3.27;75.76;98714.25;105167;1274;75980;-23
2022/01/10 10:01:59;;;;;;;19.30;12.30;;;;;;;-3.47;76.48;98718.40;105120;1271;74296;-23
2022/01/10 10:04:27;;;;;;;8.90;5.50;;;;;;;-3.43;76.17;98721.84;105119;1271;61116;-23
2022/01/10 10:06:55;;;;;;;8.40;4.60;;;;;;;-3.60;76.83;98728.64;105143;1274;61116;-24
2022/01/10 10:09:26;;;;;;;11.40;7.10;;;;;;;-3.30;75.89;98730.98;105086;1271;75726;-24
2022/01/10 10:11:55;;;;;;;13.60;7.00;;;;;;;-3.10;73.94;98732.63;104884;1271;75996;-23
2022/01/10 10:14:24;;;;;;;9.70;6.90;;;;;;;-3.13;74.30;98732.85;105159;1271;74494;-23
2022/01/10 10:16:55;;;;;;;8.00;4.50;;;;;;;-3.35;75.25;98737.09;105158;1272;61085;-23
2022/01/10 10:19:25;;;;;;;6.30;3.90;;;;;;;-3.58;76.29;98741.14;104917;1271;61240;-24
2022/01/10 10:21:56;;;;;;;11.10;5.90;;;;;;;-3.62;76.48;98739.55;104857;1271;224766;-23
2022/01/10 10:24:24;;;;;;;8.90;5.50;;;;;;;-4.05;77.31;98743.43;105066;1271;74954;-24
2022/01/10 10:26:53;;;;;;;1648.40;416.30;;;;;;;-4.17;78.44;98747.98;105084;1274;72916;-23
2022/01/10 10:29:24;;;;;;;437.00;115.30;;;;;;;-3.70;76.33;98751.64;105155;1271;61150;-23
2022/01/10 10:31:54;;;;;;;273.00;68.90;;;;;;;-3.64;76.14;98754.54;105166;1271;61064;-24
2022/01/10 10:34:27;;;;;;;1111.80;420.70;;;;;;;-3.56;75.67;98757.19;105123;1272;75533;-23
2022/01/10 10:37:12;;;;;;;214.10;83.60;;;;;;;-3.69;75.36;98754.67;105121;1271;75790;-23
2022/01/10 10:39:42;;;;;;;102.70;55.50;;;;;;;-3.79;75.38;98758.15;105101;1272;74577;-23
2022/01/10 10:42:15;;;;;;;23.30;14.50;;;;;;;-3.99;74.69;98756.50;105076;1271;61140;-23
2022/01/10 10:44:44;;;;;;;1875.50;550.00;;;;;;;-4.11;74.55;98757.33;105061;1271;62095;-24
2022/01/10 10:47:12;;;;;;;195.80;77.40;;;;;;;-3.96;74.95;98765.05;105118;1271;75662;-23
2022/01/10 10:49:46;;;;;;;66.70;39.60;;;;;;;-3.35;72.34;98767.30;104855;1274;75802;-23
2022/01/10 10:52:15;;;;;;;13.00;6.80;;;;;;;-2.96;70.43;98766.15;105136;1271;74386;-23
2022/01/10 10:54:43;;;;;;;9.20;6.20;;;;;;;-3.11;69.62;98762.84;105119;1271;61247;-23
2022/01/10 10:57:14;;;;;;;13.50;6.40;;;;;;;-3.47;71.06;98763.02;105214;1271;61302;-23
2022/01/10 10:59:44;;;;;;;15.70;8.90;;;;;;;-3.66;72.74;98766.30;105099;1271;74012;-23
2022/01/10 11:02:13;;;;;;;18.50;9.40;;;;;;;-3.72;73.45;98771.02;105134;1271;75907;-23
2022/01/10 11:04:44;;;;;;;21.90;11.20;;;;;;;-3.87;73.64;98771.95;105168;1271;74331;-22
2022/01/10 11:07:13;;;;;;;30.40;16.90;;;;;;;-3.95;74.30;98778.95;105116;1271;61076;-23
2022/01/10 11:10:03;;;;;;;22.10;12.90;;;;;;;-4.04;75.20;98780.86;105113;1271;61121;-22
2022/01/10 11:12:34;;;;;;;12.00;6.00;;;;;;;-3.54;74.05;98788.02;105029;1271;75640;-22
2022/01/10 11:15:03;;;;;;;9.30;5.40;;;;;;;-3.34;73.48;98790.36;104787;1272;76355;-24
2022/01/10 11:17:31;;;;;;;13.10;7.30;;;;;;;-3.47;74.24;98794.95;105123;1271;74488;-22
2022/01/10 11:20:10;;;;;;;10.20;5.60;;;;;;;-3.77;75.26;98800.04;105085;1271;61182;-24
2022/01/10 11:22:49;;;;;;;11.00;7.80;;;;;;;-4.10;76.46;98809.86;105000;1274;61142;-22
2022/01/10 11:25:20;;;;;;;10.20;5.40;;;;;;;-4.38;77.65;98814.78;104912;1271;74568;-22
2022/01/10 11:27:48;;;;;;;10.10;6.60;;;;;;;-4.35;77.03;98815.72;105099;1271;75730;-24
2022/01/10 11:30:30;;;;;;;46.00;23.00;;;;;;;-4.41;77.07;98812.98;105144;1271;73546;-24
2022/01/10 11:33:07;;;;;;;415.60;162.30;;;;;;;-3.95;75.43;98813.05;105030;1271;61054;-24
2022/01/10 11:36:00;;;;;;;171.90;73.30;;;;;;;-3.83;74.94;98816.30;105110;1271;61119;-24
2022/01/10 11:38:38;;;;;;;40.20;17.70;;;;;;;-4.01;75.44;98813.88;105133;1271;73880;-24
2022/01/10 11:41:10;;;;;;;34.90;18.10;;;;;;;-4.24;76.25;98816.82;105021;1274;75100;-24
2022/01/10 11:43:46;;;;;;;23.70;11.00;;;;;;;-4.15;76.21;98818.13;104946;1271;71426;-23
2022/01/10 11:46:16;;;;;;;25.40;16.90;;;;;;;-4.23;76.33;98822.05;105121;1269;60979;-23